Indianapolis, Indiana
Current Conditions -  °F | °C
As of 5:54 PM on Monday 24 Nov 2014 (Local Time) from KIND Reporting Station
Overcast Overcast  
Wind Chill: 25°   Ceiling: 3100
Heat Index: 37°   Visibility: 10mi
Dew Point: 29°   Wind: 28mph
Humidity: 73%   Direction: 230°SW
Pressure: 29.75"   Gusts: 35mph
Location:  39.77°N, 86.15°W
Report Text: KIND 242254Z 23024G30KT 10SM OVC031 03/M02 A2975 RMK AO2 PK WND 23030/2253 SLP077 T00281017
Loading
Personal Weather Stations






























Interactive Weather Map New forecast layout! Learn more

10-Day Weather Forecast

Advertisements
Track Severe Weather on mobile